createdAt,value
2022-09-09T00:00:58.565Z,80.23
2022-09-09T00:04:17.417Z,79.80
2022-09-09T00:07:47.349Z,80.11
2022-09-09T00:11:05.855Z,80.10
2022-09-09T00:14:28.528Z,80.23
2022-09-09T00:17:46.954Z,80.31
2022-09-09T00:21:04.128Z,80.80
2022-09-09T00:24:32.251Z,81.07
2022-09-09T00:27:48.648Z,80.68
2022-09-09T00:30:54.433Z,80.31
2022-09-09T00:34:16.188Z,81.77
2022-09-09T00:37:26.497Z,81.57
2022-09-09T00:40:39.122Z,80.82
2022-09-09T00:43:47.481Z,80.82
2022-09-09T00:47:13.340Z,80.42
2022-09-09T00:50:42.065Z,79.99
2022-09-09T00:54:35.162Z,80.85
2022-09-09T00:57:43.848Z,80.87
2022-09-09T01:00:57.358Z,80.47
2022-09-09T01:04:02.906Z,81.27
2022-09-09T01:07:21.991Z,81.84
2022-09-09T01:10:47.550Z,81.94
2022-09-09T01:14:08.071Z,82.35
2022-09-09T01:17:27.218Z,82.48
2022-09-09T01:20:56.748Z,82.32
2022-09-09T01:24:26.731Z,82.67
2022-09-09T01:28:04.745Z,82.78
2022-09-09T01:31:19.282Z,81.96
2022-09-09T01:34:29.968Z,81.90
2022-09-09T01:37:36.009Z,80.98
2022-09-09T01:40:42.916Z,81.05
2022-09-09T01:43:53.108Z,80.66
2022-09-09T01:46:58.783Z,80.87
2022-09-09T01:50:07.011Z,80.61
2022-09-09T01:53:13.136Z,80.77
2022-09-09T01:56:44.717Z,80.59
2022-09-09T02:00:14.888Z,80.33
2022-09-09T02:03:31.857Z,80.25
2022-09-09T02:06:54.514Z,81.36
2022-09-09T02:10:20.346Z,81.21
2022-09-09T02:13:43.102Z,81.56
2022-09-09T02:17:08.667Z,81.05
2022-09-09T02:20:35.247Z,81.67
2022-09-09T02:23:47.972Z,82.08
2022-09-09T02:27:14.052Z,81.54
2022-09-09T02:30:21.955Z,81.12
2022-09-09T02:33:48.922Z,80.96
2022-09-09T02:37:07.923Z,80.90
2022-09-09T02:40:18.435Z,80.48
2022-09-09T02:43:36.430Z,80.33
2022-09-09T02:47:22.223Z,80.41
2022-09-09T02:50:39.497Z,79.78
2022-09-09T02:54:01.497Z,79.92
2022-09-09T02:57:17.274Z,81.12
2022-09-09T03:00:29.884Z,80.77
2022-09-09T03:03:42.797Z,80.98
2022-09-09T03:06:57.988Z,81.18
2022-09-09T03:10:13.501Z,81.93
2022-09-09T03:13:20.473Z,82.10
2022-09-09T03:16:26.253Z,82.21
2022-09-09T03:19:34.101Z,83.01
2022-09-09T03:22:42.440Z,83.10
2022-09-09T03:25:53.174Z,83.44
2022-09-09T03:29:07.660Z,82.65
2022-09-09T03:32:14.109Z,82.66
2022-09-09T03:35:20.615Z,82.02
2022-09-09T03:38:30.457Z,81.62
2022-09-09T03:41:36.215Z,81.25
2022-09-09T03:44:49.187Z,81.40
2022-09-09T03:47:59.708Z,81.07
2022-09-09T03:51:05.633Z,81.27
2022-09-09T03:54:15.668Z,81.53
2022-09-09T03:57:21.765Z,81.51
2022-09-09T04:00:28.070Z,81.10
2022-09-09T04:03:38.477Z,80.37
2022-09-09T04:06:44.259Z,80.47
2022-09-09T04:09:52.564Z,81.23
2022-09-09T04:13:04.867Z,81.75
2022-09-09T04:16:14.752Z,82.11
2022-09-09T04:19:24.665Z,82.14
2022-09-09T04:22:33.216Z,82.32
2022-09-09T04:25:43.105Z,82.45
2022-09-09T04:28:48.827Z,81.79
2022-09-09T04:31:57.763Z,82.08
2022-09-09T04:35:04.213Z,81.54
2022-09-09T04:38:11.054Z,81.45
2022-09-09T04:41:20.427Z,82.33
2022-09-09T04:44:29.339Z,82.98
2022-09-09T04:47:35.690Z,81.90
2022-09-09T04:50:41.819Z,81.60
2022-09-09T04:53:51.975Z,81.22
2022-09-09T04:57:01.205Z,81.74
2022-09-09T05:00:09.258Z,82.11
2022-09-09T05:03:17.857Z,81.40
2022-09-09T05:06:26.689Z,80.66
2022-09-09T05:09:36.885Z,79.86
2022-09-09T05:12:46.502Z,80.12
2022-09-09T05:15:56.780Z,79.99
2022-09-09T05:19:04.421Z,77.90
2022-09-09T05:22:24.942Z,77.07
2022-09-09T05:25:32.516Z,77.53
2022-09-09T05:28:41.155Z,77.14
2022-09-09T05:31:46.716Z,77.24
2022-09-09T05:34:55.314Z,76.69
2022-09-09T05:38:04.385Z,76.83
2022-09-09T05:41:11.516Z,77.11
2022-09-09T05:44:20.528Z,76.26
2022-09-09T05:47:28.828Z,76.33
2022-09-09T05:50:35.365Z,76.57
2022-09-09T05:53:41.078Z,73.14
2022-09-09T05:56:51.481Z,68.73
2022-09-09T06:00:00.753Z,65.24
2022-09-09T06:03:06.676Z,63.36
2022-09-09T06:06:16.393Z,59.65
2022-09-09T06:09:22.263Z,58.70
2022-09-09T06:12:29.935Z,57.73
2022-09-09T06:15:38.376Z,55.45
2022-09-09T06:18:46.086Z,53.88
2022-09-09T06:21:52.048Z,52.02
2022-09-09T06:24:57.843Z,51.56
2022-09-09T06:28:03.553Z,49.47
2022-09-09T06:31:15.909Z,47.38
2022-09-09T06:34:21.971Z,45.77
2022-09-09T06:37:32.363Z,46.36
2022-09-09T06:40:38.263Z,45.88
2022-09-09T06:43:44.825Z,46.10
2022-09-09T06:46:54.204Z,46.42
2022-09-09T06:49:59.893Z,46.40
2022-09-09T06:53:05.857Z,45.20
2022-09-09T06:56:25.589Z,45.86
2022-09-09T06:59:33.253Z,44.29
2022-09-09T07:02:42.307Z,43.27
2022-09-09T07:05:59.235Z,43.35
2022-09-09T07:09:10.149Z,41.86
2022-09-09T07:12:18.541Z,42.26
2022-09-09T07:15:35.607Z,42.13
2022-09-09T07:18:47.900Z,42.25
2022-09-09T07:21:53.610Z,41.75
2022-09-09T07:25:03.425Z,40.42
2022-09-09T07:28:09.823Z,39.91
2022-09-09T07:31:21.730Z,40.92
2022-09-09T07:34:31.143Z,41.57
2022-09-09T07:37:42.336Z,39.90
2022-09-09T07:40:48.057Z,41.75
2022-09-09T07:43:55.855Z,42.45
2022-09-09T07:47:09.183Z,41.82
2022-09-09T07:50:21.937Z,43.48
2022-09-09T07:53:27.632Z,39.29
2022-09-09T07:56:35.326Z,37.75
2022-09-09T07:59:41.929Z,37.09
2022-09-09T08:02:48.039Z,38.52
2022-09-09T08:05:56.973Z,36.05
2022-09-09T08:09:03.833Z,35.84
2022-09-09T08:12:15.608Z,36.24
2022-09-09T08:15:21.303Z,38.56
2022-09-09T08:18:27.105Z,40.05
2022-09-09T08:21:37.925Z,40.48
2022-09-09T08:24:43.686Z,41.49
2022-09-09T08:27:49.732Z,43.47
2022-09-09T08:30:55.786Z,40.55
2022-09-09T08:34:05.755Z,39.50
2022-09-09T08:37:14.827Z,38.98
2022-09-09T08:40:35.786Z,38.82
2022-09-09T08:43:43.303Z,37.74
2022-09-09T08:47:05.698Z,37.33
2022-09-09T08:50:30.491Z,38.17
2022-09-09T08:53:55.359Z,39.02
2022-09-09T08:57:23.714Z,40.76
2022-09-09T09:00:46.401Z,37.83
2022-09-09T09:04:14.272Z,38.37
2022-09-09T09:07:44.706Z,39.42
2022-09-09T09:10:58.253Z,40.37
2022-09-09T09:14:15.690Z,40.21
2022-09-09T09:17:26.219Z,43.06
2022-09-09T09:20:52.388Z,43.51
2022-09-09T09:24:03.250Z,41.87
2022-09-09T09:27:19.473Z,42.22
2022-09-09T09:30:38.760Z,42.45
2022-09-09T09:33:54.341Z,39.42
2022-09-09T09:37:11.369Z,38.02
2022-09-09T09:40:21.359Z,39.33
2022-09-09T09:43:34.563Z,38.81
2022-09-09T09:46:43.647Z,39.37
2022-09-09T09:50:00.645Z,39.46
2022-09-09T09:53:25.172Z,39.85
2022-09-09T09:56:33.777Z,38.58
2022-09-09T09:59:46.580Z,40.27
2022-09-09T10:03:00.693Z,38.59
2022-09-09T10:06:10.771Z,39.59
2022-09-09T10:09:30.153Z,39.61
2022-09-09T10:13:07.196Z,40.81
2022-09-09T10:16:45.540Z,39.88
2022-09-09T10:20:25.269Z,38.87
2022-09-09T10:24:03.574Z,37.11
2022-09-09T10:27:24.038Z,37.10
2022-09-09T10:30:52.026Z,37.19
2022-09-09T10:34:23.321Z,38.62
2022-09-09T10:37:53.911Z,37.49
2022-09-09T10:41:22.298Z,35.08
2022-09-09T10:44:54.457Z,34.81
2022-09-09T10:48:31.908Z,32.58
2022-09-09T10:52:09.263Z,32.98
2022-09-09T10:55:24.631Z,32.25
2022-09-09T10:58:47.452Z,32.13
2022-09-09T11:02:04.072Z,29.91
2022-09-09T11:05:23.050Z,30.71
2022-09-09T11:08:37.516Z,32.15
2022-09-09T11:11:55.578Z,31.64
2022-09-09T11:15:11.308Z,31.71
2022-09-09T11:18:24.610Z,30.79
2022-09-09T11:21:38.260Z,32.83
2022-09-09T11:24:55.839Z,33.91
2022-09-09T11:28:25.299Z,33.75
2022-09-09T11:31:50.359Z,33.29
2022-09-09T11:35:23.817Z,33.50
2022-09-09T11:38:33.203Z,32.84
2022-09-09T11:41:42.826Z,29.69
2022-09-09T11:44:49.962Z,30.98
2022-09-09T11:48:01.494Z,29.94
2022-09-09T11:51:17.303Z,28.14
2022-09-09T11:54:40.926Z,28.74
2022-09-09T11:57:49.753Z,28.77
2022-09-09T12:00:55.440Z,29.30
2022-09-09T12:04:37.909Z,30.12
2022-09-09T12:07:56.626Z,30.82
2022-09-09T12:11:04.328Z,32.14
2022-09-09T12:14:26.250Z,30.37
2022-09-09T12:17:36.360Z,29.84
2022-09-09T12:20:45.206Z,31.30
2022-09-09T12:24:02.675Z,30.93
2022-09-09T12:27:22.195Z,30.79
2022-09-09T12:30:41.713Z,30.94
2022-09-09T12:33:49.716Z,29.49
2022-09-09T12:37:08.241Z,30.56
2022-09-09T12:40:26.717Z,30.22
2022-09-09T12:43:33.433Z,31.14
2022-09-09T12:46:49.779Z,32.34
2022-09-09T12:49:57.565Z,33.27
2022-09-09T12:53:19.172Z,33.40
2022-09-09T12:56:31.414Z,33.80
2022-09-09T12:59:43.788Z,33.66
2022-09-09T13:03:00.224Z,32.75
2022-09-09T13:06:28.573Z,32.41
2022-09-09T13:09:36.501Z,33.64
2022-09-09T13:12:43.694Z,35.16
2022-09-09T13:15:57.754Z,34.38
2022-09-09T13:19:13.424Z,35.06
2022-09-09T13:22:31.383Z,35.44
2022-09-09T13:25:40.649Z,35.42
2022-09-09T13:28:50.775Z,35.77
2022-09-09T13:31:58.373Z,35.43
2022-09-09T13:35:07.783Z,36.98
2022-09-09T13:38:13.814Z,35.86
2022-09-09T13:41:26.786Z,35.26
2022-09-09T13:44:42.900Z,36.13
2022-09-09T13:47:48.934Z,36.97
2022-09-09T13:51:11.591Z,35.39
2022-09-09T13:54:25.590Z,35.64
2022-09-09T13:57:31.152Z,35.89
2022-09-09T14:00:49.744Z,35.56
2022-09-09T14:03:55.283Z,35.62
2022-09-09T14:07:03.456Z,35.31
2022-09-09T14:10:12.088Z,36.55
2022-09-09T14:13:23.148Z,35.90
2022-09-09T14:16:29.133Z,37.87
2022-09-09T14:19:35.902Z,36.18
2022-09-09T14:22:45.304Z,35.95
2022-09-09T14:25:50.908Z,36.58
2022-09-09T14:28:56.550Z,38.01
2022-09-09T14:32:08.344Z,37.50
2022-09-09T14:35:16.511Z,38.64
2022-09-09T14:38:24.698Z,38.90
2022-09-09T14:41:30.769Z,38.13
2022-09-09T14:44:37.020Z,38.12
2022-09-09T14:47:42.951Z,38.15
2022-09-09T14:50:48.454Z,39.50
2022-09-09T14:54:01.160Z,38.67
2022-09-09T14:57:07.150Z,37.89
2022-09-09T15:00:15.142Z,38.40
2022-09-09T15:03:27.557Z,37.84
2022-09-09T15:06:37.706Z,38.67
2022-09-09T15:09:46.103Z,39.69
2022-09-09T15:12:51.826Z,40.42
2022-09-09T15:15:59.088Z,38.72
2022-09-09T15:19:07.305Z,39.68
2022-09-09T15:22:12.983Z,39.04
2022-09-09T15:25:23.104Z,39.43
2022-09-09T15:28:28.973Z,40.21
2022-09-09T15:31:35.943Z,40.42
2022-09-09T15:34:41.498Z,40.72
2022-09-09T15:37:47.214Z,42.05
2022-09-09T15:41:00.191Z,42.68
2022-09-09T15:44:06.865Z,42.44
2022-09-09T15:47:17.459Z,42.99
2022-09-09T15:50:23.347Z,43.55
2022-09-09T15:53:28.898Z,43.70
2022-09-09T15:56:37.360Z,44.59
2022-09-09T15:59:43.375Z,44.34
2022-09-09T16:02:51.032Z,44.00
2022-09-09T16:05:56.619Z,45.10
2022-09-09T16:09:03.552Z,45.70
2022-09-09T16:12:14.139Z,45.80
2022-09-09T16:15:23.623Z,46.13
2022-09-09T16:18:40.295Z,46.93
2022-09-09T16:21:49.130Z,46.67
2022-09-09T16:24:57.605Z,47.39
2022-09-09T16:28:06.576Z,47.66
2022-09-09T16:31:17.756Z,47.82
2022-09-09T16:34:24.114Z,48.27
2022-09-09T16:37:29.680Z,48.56
2022-09-09T16:40:38.164Z,48.90
2022-09-09T16:43:46.506Z,49.50
2022-09-09T16:47:00.504Z,50.69
2022-09-09T16:50:10.678Z,51.88
2022-09-09T16:53:16.350Z,51.87
2022-09-09T16:56:27.768Z,52.09
2022-09-09T16:59:35.956Z,56.15
2022-09-09T17:02:41.620Z,55.19
2022-09-09T17:05:47.221Z,55.88
2022-09-09T17:08:58.323Z,55.83
2022-09-09T17:12:04.005Z,57.30
2022-09-09T17:15:13.925Z,58.28
2022-09-09T17:18:19.792Z,58.45
2022-09-09T17:21:29.453Z,58.72
2022-09-09T17:24:35.512Z,58.73
2022-09-09T17:27:41.720Z,59.66
2022-09-09T17:30:57.023Z,59.71
2022-09-09T17:34:05.288Z,59.94
2022-09-09T17:37:12.556Z,60.37
2022-09-09T17:40:23.631Z,61.06
2022-09-09T17:43:40.299Z,60.90
2022-09-09T17:46:51.115Z,61.43
2022-09-09T17:50:00.029Z,61.37
2022-09-09T17:53:17.752Z,61.20
2022-09-09T17:56:26.420Z,61.76
2022-09-09T17:59:32.343Z,62.17
2022-09-09T18:02:44.419Z,62.32
2022-09-09T18:05:50.332Z,62.43
2022-09-09T18:08:59.506Z,62.39
2022-09-09T18:12:15.171Z,62.03
2022-09-09T18:15:39.250Z,62.43
2022-09-09T18:18:53.137Z,62.99
2022-09-09T18:22:01.816Z,63.09
2022-09-09T18:25:21.808Z,63.34
2022-09-09T18:28:27.551Z,63.48
2022-09-09T18:31:37.957Z,62.99
2022-09-09T18:34:46.218Z,63.76
2022-09-09T18:37:52.443Z,63.58
2022-09-09T18:40:58.964Z,62.46
2022-09-09T18:44:09.722Z,62.60
2022-09-09T18:47:19.439Z,60.85
2022-09-09T18:50:29.217Z,60.96
2022-09-09T18:53:37.506Z,60.72
2022-09-09T18:56:43.723Z,60.35
2022-09-09T18:59:49.418Z,61.07
2022-09-09T19:02:56.439Z,61.12
2022-09-09T19:06:12.757Z,60.41
2022-09-09T19:09:26.337Z,59.66
2022-09-09T19:12:33.530Z,59.60
2022-09-09T19:15:46.442Z,60.29
2022-09-09T19:18:53.986Z,59.78
2022-09-09T19:22:04.045Z,60.67
2022-09-09T19:25:12.416Z,60.50
2022-09-09T19:28:20.136Z,60.79
2022-09-09T19:31:28.162Z,60.99
2022-09-09T19:34:36.368Z,60.77
2022-09-09T19:37:44.627Z,62.25
2022-09-09T19:40:51.214Z,62.80
2022-09-09T19:44:02.220Z,63.28
2022-09-09T19:47:08.173Z,62.95
2022-09-09T19:50:14.469Z,62.78
2022-09-09T19:53:23.082Z,63.43
2022-09-09T19:56:31.403Z,64.39
2022-09-09T19:59:40.388Z,65.62
2022-09-09T20:03:02.564Z,66.56
2022-09-09T20:06:14.723Z,65.32
2022-09-09T20:09:26.657Z,65.50
2022-09-09T20:12:32.239Z,66.31
2022-09-09T20:15:37.866Z,66.43
2022-09-09T20:18:47.740Z,66.67
2022-09-09T20:21:53.400Z,66.25
2022-09-09T20:25:03.044Z,64.37
2022-09-09T20:28:08.904Z,65.30
2022-09-09T20:31:19.877Z,64.74
2022-09-09T20:34:27.442Z,63.92
2022-09-09T20:37:42.054Z,63.53
2022-09-09T20:40:51.202Z,63.09
2022-09-09T20:44:01.731Z,62.51
2022-09-09T20:47:09.785Z,62.08
2022-09-09T20:50:20.458Z,61.76
2022-09-09T20:53:26.106Z,62.82
2022-09-09T20:56:43.737Z,63.17
2022-09-09T20:59:51.253Z,61.79
2022-09-09T21:03:00.349Z,60.43
2022-09-09T21:06:07.194Z,63.01
2022-09-09T21:09:20.604Z,61.78
2022-09-09T21:12:30.538Z,63.19
2022-09-09T21:15:36.079Z,62.56
2022-09-09T21:18:41.648Z,62.15
2022-09-09T21:21:48.144Z,61.52
2022-09-09T21:24:53.852Z,62.36
2022-09-09T21:28:02.338Z,61.06
2022-09-09T21:31:09.366Z,61.75
2022-09-09T21:34:15.811Z,61.79
2022-09-09T21:37:21.409Z,62.46
2022-09-09T21:40:26.983Z,61.47
2022-09-09T21:43:36.049Z,61.90
2022-09-09T21:46:43.554Z,62.43
2022-09-09T21:49:49.294Z,61.76
2022-09-09T21:52:55.249Z,61.72
2022-09-09T21:56:06.630Z,63.03
2022-09-09T21:59:14.783Z,64.14
2022-09-09T22:02:22.355Z,63.98
2022-09-09T22:05:28.351Z,64.43
2022-09-09T22:08:34.033Z,64.39
2022-09-09T22:11:41.545Z,64.06
2022-09-09T22:14:53.679Z,64.14
2022-09-09T22:17:59.409Z,64.35
2022-09-09T22:21:09.990Z,62.49
2022-09-09T22:24:15.956Z,62.18
2022-09-09T22:27:22.229Z,63.93
2022-09-09T22:30:30.627Z,63.99
2022-09-09T22:33:37.755Z,64.63
2022-09-09T22:36:43.451Z,65.01
2022-09-09T22:39:49.780Z,64.51
2022-09-09T22:42:57.222Z,65.88
2022-09-09T22:46:06.177Z,66.01
2022-09-09T22:49:11.686Z,65.02
2022-09-09T22:52:17.323Z,63.91
2022-09-09T22:55:27.048Z,64.14
2022-09-09T22:58:40.011Z,64.15
2022-09-09T23:01:51.190Z,64.01
2022-09-09T23:04:57.869Z,63.48
2022-09-09T23:08:03.399Z,64.65
2022-09-09T23:11:21.827Z,64.40
2022-09-09T23:14:27.514Z,65.02
2022-09-09T23:17:35.929Z,64.97
2022-09-09T23:20:46.170Z,64.44
2022-09-09T23:23:55.831Z,65.41
2022-09-09T23:27:01.537Z,66.74
2022-09-09T23:30:12.681Z,65.90
2022-09-09T23:33:20.913Z,66.33
2022-09-09T23:36:29.877Z,66.55
2022-09-09T23:39:43.690Z,68.38
2022-09-09T23:42:49.545Z,68.66
2022-09-09T23:46:01.173Z,69.18
2022-09-09T23:49:09.895Z,70.48
2022-09-09T23:52:15.557Z,70.78
2022-09-09T23:55:25.914Z,71.84
2022-09-09T23:58:39.477Z,71.93
